Amagi Galaxy — V7VE9 — position and weather

sailwx.info

Track history (hours):
 
Tides and Currents Weather Stations Pressure Air Temp Water Temp Dewpoint Dewpoint Depression Visibility Wind Speed Wind Dir Waves Ship Positions

Amagi Galaxy

Last reported at 2015-Jan-08 20:27 UTC. Time now 2015-Jan-31 08:39 UTC.
Position N 30°36' E 122°58'.
Warning: this ship's position is 22 days out of date.

Length 152 m; draft 6.4 m.

Type: Ship (hazmat cat B). MMSI: 538004105.

Date/timePositionNaut miles runAvg speedWind from/ knotsBaromVisibWave heightAir tempDewpointWater temp
2015-Jan-08 20:27N 30°36' E 122°58'2914.6
2015-Jan-08 18:26N 30°58' E 122°35'1214.1
2015-Jan-08 17:33N 31°01' E 122°21'1111.5
2015-Jan-08 16:34N 31°03' E 122°08'1110.7
2015-Jan-08 15:33N 31°07' E 121°56'1312.7
2015-Jan-08 14:33N 31°16' E 121°45'1111.1
2015-Jan-08 13:33N 31°23' E 121°35'1111.0
2015-Jan-08 12:34N 31°30' E 121°25'1413.5
2015-Jan-08 11:33N 31°39' E 121°14'1414.3
2015-Jan-08 10:33N 31°47' E 120°59'1212.0
2015-Jan-08 09:34N 31°57' E 120°52'1010.4
2015-Jan-08 08:33N 31°60' E 120°40'1110.8
2015-Jan-08 07:33N 32°02' E 120°28'4 3.6
2015-Jan-08 06:34N 31°58' E 120°27'0 0.0
2015-Jan-08 05:33N 31°58' E 120°27'0 0.0
2015-Jan-08 04:33N 31°58' E 120°27'0 0.0
2015-Jan-08 03:51N 31°58' E 120°27'0 0.0
2015-Jan-07 20:33N 31°58' E 120°27'0 0.0
2015-Jan-07 19:33N 31°58' E 120°27'0 0.0
2015-Jan-07 18:33N 31°58' E 120°27'0 0.0
2015-Jan-07 17:33N 31°58' E 120°27'0 0.0
2015-Jan-07 16:33N 31°58' E 120°27'0 0.0
2015-Jan-07 15:33N 31°58' E 120°27'0 0.0
2015-Jan-07 14:33N 31°58' E 120°27'0 0.0
2015-Jan-07 13:33N 31°58' E 120°27'0 0.0
2015-Jan-07 12:30N 31°58' E 120°27'0 0.0
2015-Jan-07 11:33N 31°58' E 120°27'0 0.0
2015-Jan-07 10:33N 31°58' E 120°27'0 0.0
2015-Jan-07 09:33N 31°58' E 120°27'0 0.0
2015-Jan-07 08:33N 31°58' E 120°27'0 0.0
2015-Jan-07 07:33N 31°58' E 120°27'0 0.0
2015-Jan-07 06:33N 31°58' E 120°27'0 0.0
2015-Jan-07 05:33N 31°58' E 120°27'4 4.4
2015-Jan-07 04:33N 32°02' E 120°29'10 9.8
2015-Jan-07 03:33N 32°00' E 120°41'1 1.1
2015-Jan-07 02:33N 31°60' E 120°42'0 0.0
2015-Jan-07 01:32N 31°60' E 120°42'0 0.0
2015-Jan-07 00:33N 31°60' E 120°42'0 0.0
2015-Jan-06 23:33N 31°60' E 120°42'0 0.0
2015-Jan-06 22:29N 31°60' E 120°42'0 0.0
2015-Jan-06 21:32N 31°60' E 120°42'0 0.0
2015-Jan-06 20:29N 31°60' E 120°42'0 0.0
2015-Jan-06 19:32N 31°60' E 120°42'0 0.0
2015-Jan-06 18:29N 31°60' E 120°42'0 0.0
2015-Jan-06 17:32N 31°60' E 120°42'0 0.0
2015-Jan-06 16:29N 31°60' E 120°42'0 0.0
2015-Jan-06 15:29N 31°60' E 120°42'0 0.0
2015-Jan-06 14:33N 31°60' E 120°42'0 0.0
2015-Jan-06 13:33N 31°60' E 120°42'0 0.0
2015-Jan-06 12:23N 31°60' E 120°42'0 0.0
2015-Jan-06 11:26N 31°60' E 120°42'0 0.0
2015-Jan-06 10:27N 31°60' E 120°42'0 0.0
2015-Jan-06 09:32N 31°60' E 120°42'0 0.0
2015-Jan-06 08:33N 31°60' E 120°42'2 1.5
2015-Jan-06 07:33N 31°60' E 120°40'6 5.6
2015-Jan-06 06:32N 32°01' E 120°34'0 0.2
2015-Jan-06 05:28N 32°01' E 120°34'0 0.1
2015-Jan-06 04:28N 32°01' E 120°34'0 0.1
2015-Jan-06 03:28N 32°01' E 120°34'0 0.1
2015-Jan-06 02:28N 32°01' E 120°34'0 0.0
2015-Jan-06 01:28N 32°01' E 120°34'0 0.0
2015-Jan-06 00:31N 32°01' E 120°34'0 0.0
2015-Jan-05 23:31N 32°01' E 120°34'0 0.1
2015-Jan-05 22:31N 32°01' E 120°34'0 0.1
2015-Jan-05 21:31N 32°01' E 120°34'0 0.1
2015-Jan-05 20:31N 32°01' E 120°34'0 0.0
2015-Jan-05 19:31N 32°01' E 120°34'0 0.2
2015-Jan-05 18:31N 32°01' E 120°34'0 0.1
2015-Jan-05 17:28N 32°01' E 120°34'0 0.0
2015-Jan-05 16:31N 32°01' E 120°34'6 6.0
2015-Jan-05 15:34N 32°02' E 120°27'8 7.6
2015-Jan-05 14:34N 31°58' E 120°20'1110.9
2015-Jan-05 13:33N 31°56' E 120°07'0 0.1
2015-Jan-05 12:32N 31°56' E 120°07'0 0.0
2015-Jan-05 11:14N 31°56' E 120°07'0 0.0
2015-Jan-05 10:23N 31°56' E 120°07'0 0.0
2015-Jan-05 08:26N 31°56' E 120°07'0 0.0
2015-Jan-05 07:20N 31°56' E 120°07'0 0.0
2015-Jan-05 06:32N 31°56' E 120°07'0 0.0
2015-Jan-05 04:15N 31°56' E 120°07'0 0.0
2015-Jan-05 03:14N 31°56' E 120°07'0 0.0
2015-Jan-05 02:14N 31°56' E 120°07'0 0.0
2015-Jan-05 00:32N 31°56' E 120°07'0 0.0
2015-Jan-04 23:26N 31°56' E 120°07'0 0.0
2015-Jan-04 22:32N 31°56' E 120°07'0 0.1
2015-Jan-04 21:26N 31°56' E 120°07'0 0.1
2015-Jan-04 20:20N 31°56' E 120°07'0 0.0
2015-Jan-04 19:32N 31°56' E 120°07'0 0.0
2015-Jan-04 18:32N 31°56' E 120°07'0 0.0
2015-Jan-04 17:32N 31°56' E 120°07'0 0.0
2015-Jan-04 16:20N 31°56' E 120°07'0 0.0
2015-Jan-04 15:26N 31°56' E 120°07'0 0.0
2015-Jan-04 14:26N 31°56' E 120°07'0 0.0
2015-Jan-04 13:32N 31°56' E 120°07'0 0.0
2015-Jan-04 12:26N 31°56' E 120°07'0 0.0
2015-Jan-04 11:32N 31°56' E 120°07'0 0.0
2015-Jan-04 10:14N 31°56' E 120°07'0 0.0
2015-Jan-04 09:32N 31°56' E 120°07'0 0.0
2015-Jan-04 08:29N 31°56' E 120°07'0 0.0
2015-Jan-04 07:26N 31°56' E 120°07'0 0.2
2015-Jan-04 06:33N 31°56' E 120°07'10 9.7
2015-Jan-04 05:33N 31°57' E 120°18'8 8.0
2015-Jan-04 04:33N 32°00' E 120°27'8 7.6
2015-Jan-04 03:33N 32°00' E 120°36'1010.0
2015-Jan-04 02:33N 32°01' E 120°48'1010.2
2015-Jan-04 01:33N 31°52' E 120°54'9 9.3
2015-Jan-04 00:33N 31°46' E 121°03'1010.4
2015-Jan-03 23:33N 31°40' E 121°12'8 8.4
2015-Jan-03 22:33N 31°34' E 121°19'1 0.7
2015-Jan-03 21:31N 31°34' E 121°20'0 0.0
2015-Jan-03 20:31N 31°34' E 121°20'0 0.0
2015-Jan-03 19:31N 31°34' E 121°20'0 0.1
2015-Jan-03 18:31N 31°34' E 121°20'0 0.1
2015-Jan-03 17:31N 31°34' E 121°20'0 0.0
2015-Jan-03 16:33N 31°34' E 121°20'0 0.0
2015-Jan-03 15:33N 31°34' E 121°20'0 0.0
2015-Jan-03 14:33N 31°34' E 121°20'0 0.1
2015-Jan-03 13:33N 31°34' E 121°20'0 0.0
2015-Jan-03 12:33N 31°34' E 121°20'0 0.0
2015-Jan-03 11:33N 31°34' E 121°20'0 0.0
2015-Jan-03 10:33N 31°34' E 121°20'0 0.0
2015-Jan-03 09:33N 31°34' E 121°20'0 0.1
2015-Jan-03 08:33N 31°34' E 121°20'0 0.0
2015-Jan-03 07:33N 31°34' E 121°20'7 6.6
2015-Jan-03 06:33N 31°30' E 121°26'8 8.4
2015-Jan-03 05:33N 31°24' E 121°34'10 9.7
2015-Jan-03 04:33N 31°19' E 121°43'1111.5
2015-Jan-03 03:33N 31°15' E 121°56'1211.6
2015-Jan-03 02:33N 31°12' E 122°09'1211.9
2015-Jan-03 01:33N 31°06' E 122°21'9 8.5
2015-Jan-03 00:33N 31°08' E 122°31'5 4.3
2015-Jan-02 23:29N 31°11' E 122°35'2 0.5
2015-Jan-02 18:26N 31°10' E 122°37'  
Track history (hours):
 
Tides and Currents Weather Stations Pressure Air Temp Water Temp Dewpoint Dewpoint Depression Visibility Wind Speed Wind Dir Waves Ship Positions

Amagi Galaxy

Last reported at 2015-Jan-08 20:27 UTC. Time now 2015-Jan-31 08:39 UTC.
Position N 30°36' E 122°58'.
Warning: this ship's position is 22 days out of date.

Length 152 m; draft 6.4 m.

Type: Ship (hazmat cat B). MMSI: 538004105.

Date/timePositionNaut miles runAvg speedWind from/ knotsBaromVisibWave heightAir tempDewpointWater temp
2015-Jan-08 20:27N 30°36' E 122°58'2914.6
2015-Jan-08 18:26N 30°58' E 122°35'1214.1
2015-Jan-08 17:33N 31°01' E 122°21'1111.5
2015-Jan-08 16:34N 31°03' E 122°08'1110.7
2015-Jan-08 15:33N 31°07' E 121°56'1312.7
2015-Jan-08 14:33N 31°16' E 121°45'1111.1
2015-Jan-08 13:33N 31°23' E 121°35'1111.0
2015-Jan-08 12:34N 31°30' E 121°25'1413.5
2015-Jan-08 11:33N 31°39' E 121°14'1414.3
2015-Jan-08 10:33N 31°47' E 120°59'1212.0
2015-Jan-08 09:34N 31°57' E 120°52'1010.4
2015-Jan-08 08:33N 31°60' E 120°40'1110.8
2015-Jan-08 07:33N 32°02' E 120°28'4 3.6
2015-Jan-08 06:34N 31°58' E 120°27'0 0.0
2015-Jan-08 05:33N 31°58' E 120°27'0 0.0
2015-Jan-08 04:33N 31°58' E 120°27'0 0.0
2015-Jan-08 03:51N 31°58' E 120°27'0 0.0
2015-Jan-07 20:33N 31°58' E 120°27'0 0.0
2015-Jan-07 19:33N 31°58' E 120°27'0 0.0
2015-Jan-07 18:33N 31°58' E 120°27'0 0.0
2015-Jan-07 17:33N 31°58' E 120°27'0 0.0
2015-Jan-07 16:33N 31°58' E 120°27'0 0.0
2015-Jan-07 15:33N 31°58' E 120°27'0 0.0
2015-Jan-07 14:33N 31°58' E 120°27'0 0.0
2015-Jan-07 13:33N 31°58' E 120°27'0 0.0
2015-Jan-07 12:30N 31°58' E 120°27'0 0.0
2015-Jan-07 11:33N 31°58' E 120°27'0 0.0
2015-Jan-07 10:33N 31°58' E 120°27'0 0.0
2015-Jan-07 09:33N 31°58' E 120°27'0 0.0
2015-Jan-07 08:33N 31°58' E 120°27'0 0.0
2015-Jan-07 07:33N 31°58' E 120°27'0 0.0
2015-Jan-07 06:33N 31°58' E 120°27'0 0.0
2015-Jan-07 05:33N 31°58' E 120°27'4 4.4
2015-Jan-07 04:33N 32°02' E 120°29'10 9.8
2015-Jan-07 03:33N 32°00' E 120°41'1 1.1
2015-Jan-07 02:33N 31°60' E 120°42'0 0.0
2015-Jan-07 01:32N 31°60' E 120°42'0 0.0
2015-Jan-07 00:33N 31°60' E 120°42'0 0.0
2015-Jan-06 23:33N 31°60' E 120°42'0 0.0
2015-Jan-06 22:29N 31°60' E 120°42'0 0.0
2015-Jan-06 21:32N 31°60' E 120°42'0 0.0
2015-Jan-06 20:29N 31°60' E 120°42'0 0.0
2015-Jan-06 19:32N 31°60' E 120°42'0 0.0
2015-Jan-06 18:29N 31°60' E 120°42'0 0.0
2015-Jan-06 17:32N 31°60' E 120°42'0 0.0
2015-Jan-06 16:29N 31°60' E 120°42'0 0.0
2015-Jan-06 15:29N 31°60' E 120°42'0 0.0
2015-Jan-06 14:33N 31°60' E 120°42'0 0.0
2015-Jan-06 13:33N 31°60' E 120°42'0 0.0
2015-Jan-06 12:23N 31°60' E 120°42'0 0.0
2015-Jan-06 11:26N 31°60' E 120°42'0 0.0
2015-Jan-06 10:27N 31°60' E 120°42'0 0.0
2015-Jan-06 09:32N 31°60' E 120°42'0 0.0
2015-Jan-06 08:33N 31°60' E 120°42'2 1.5
2015-Jan-06 07:33N 31°60' E 120°40'6 5.6
2015-Jan-06 06:32N 32°01' E 120°34'0 0.2
2015-Jan-06 05:28N 32°01' E 120°34'0 0.1
2015-Jan-06 04:28N 32°01' E 120°34'0 0.1
2015-Jan-06 03:28N 32°01' E 120°34'0 0.1
2015-Jan-06 02:28N 32°01' E 120°34'0 0.0
2015-Jan-06 01:28N 32°01' E 120°34'0 0.0
2015-Jan-06 00:31N 32°01' E 120°34'0 0.0
2015-Jan-05 23:31N 32°01' E 120°34'0 0.1
2015-Jan-05 22:31N 32°01' E 120°34'0 0.1
2015-Jan-05 21:31N 32°01' E 120°34'0 0.1
2015-Jan-05 20:31N 32°01' E 120°34'0 0.0
2015-Jan-05 19:31N 32°01' E 120°34'0 0.2
2015-Jan-05 18:31N 32°01' E 120°34'0 0.1
2015-Jan-05 17:28N 32°01' E 120°34'0 0.0
2015-Jan-05 16:31N 32°01' E 120°34'6 6.0
2015-Jan-05 15:34N 32°02' E 120°27'8 7.6
2015-Jan-05 14:34N 31°58' E 120°20'1110.9
2015-Jan-05 13:33N 31°56' E 120°07'0 0.1
2015-Jan-05 12:32N 31°56' E 120°07'0 0.0
2015-Jan-05 11:14N 31°56' E 120°07'0 0.0
2015-Jan-05 10:23N 31°56' E 120°07'0 0.0
2015-Jan-05 08:26N 31°56' E 120°07'0 0.0
2015-Jan-05 07:20N 31°56' E 120°07'0 0.0
2015-Jan-05 06:32N 31°56' E 120°07'0 0.0
2015-Jan-05 04:15N 31°56' E 120°07'0 0.0
2015-Jan-05 03:14N 31°56' E 120°07'0 0.0
2015-Jan-05 02:14N 31°56' E 120°07'0 0.0
2015-Jan-05 00:32N 31°56' E 120°07'0 0.0
2015-Jan-04 23:26N 31°56' E 120°07'0 0.0
2015-Jan-04 22:32N 31°56' E 120°07'0 0.1
2015-Jan-04 21:26N 31°56' E 120°07'0 0.1
2015-Jan-04 20:20N 31°56' E 120°07'0 0.0
2015-Jan-04 19:32N 31°56' E 120°07'0 0.0
2015-Jan-04 18:32N 31°56' E 120°07'0 0.0
2015-Jan-04 17:32N 31°56' E 120°07'0 0.0
2015-Jan-04 16:20N 31°56' E 120°07'0 0.0
2015-Jan-04 15:26N 31°56' E 120°07'0 0.0
2015-Jan-04 14:26N 31°56' E 120°07'0 0.0
2015-Jan-04 13:32N 31°56' E 120°07'0 0.0
2015-Jan-04 12:26N 31°56' E 120°07'0 0.0
2015-Jan-04 11:32N 31°56' E 120°07'0 0.0
2015-Jan-04 10:14N 31°56' E 120°07'0 0.0
2015-Jan-04 09:32N 31°56' E 120°07'0 0.0
2015-Jan-04 08:29N 31°56' E 120°07'0 0.0
2015-Jan-04 07:26N 31°56' E 120°07'0 0.2
2015-Jan-04 06:33N 31°56' E 120°07'10 9.7
2015-Jan-04 05:33N 31°57' E 120°18'8 8.0
2015-Jan-04 04:33N 32°00' E 120°27'8 7.6
2015-Jan-04 03:33N 32°00' E 120°36'1010.0
2015-Jan-04 02:33N 32°01' E 120°48'1010.2
2015-Jan-04 01:33N 31°52' E 120°54'9 9.3
2015-Jan-04 00:33N 31°46' E 121°03'1010.4
2015-Jan-03 23:33N 31°40' E 121°12'8 8.4
2015-Jan-03 22:33N 31°34' E 121°19'1 0.7
2015-Jan-03 21:31N 31°34' E 121°20'0 0.0
2015-Jan-03 20:31N 31°34' E 121°20'0 0.0
2015-Jan-03 19:31N 31°34' E 121°20'0 0.1
2015-Jan-03 18:31N 31°34' E 121°20'0 0.1
2015-Jan-03 17:31N 31°34' E 121°20'0 0.0
2015-Jan-03 16:33N 31°34' E 121°20'0 0.0
2015-Jan-03 15:33N 31°34' E 121°20'0 0.0
2015-Jan-03 14:33N 31°34' E 121°20'0 0.1
2015-Jan-03 13:33N 31°34' E 121°20'0 0.0
2015-Jan-03 12:33N 31°34' E 121°20'0 0.0
2015-Jan-03 11:33N 31°34' E 121°20'0 0.0
2015-Jan-03 10:33N 31°34' E 121°20'0 0.0
2015-Jan-03 09:33N 31°34' E 121°20'0 0.1
2015-Jan-03 08:33N 31°34' E 121°20'0 0.0
2015-Jan-03 07:33N 31°34' E 121°20'7 6.6
2015-Jan-03 06:33N 31°30' E 121°26'8 8.4
2015-Jan-03 05:33N 31°24' E 121°34'10 9.7
2015-Jan-03 04:33N 31°19' E 121°43'1111.5
2015-Jan-03 03:33N 31°15' E 121°56'1211.6
2015-Jan-03 02:33N 31°12' E 122°09'1211.9
2015-Jan-03 01:33N 31°06' E 122°21'9 8.5
2015-Jan-03 00:33N 31°08' E 122°31'5 4.3
2015-Jan-02 23:29N 31°11' E 122°35'2 0.5
2015-Jan-02 18:26N 31°10' E 122°37'  

Dump ship's entire track history